X  Luk Metar data     LGRX Patras Araxos Agamemnon Airport
Temperatur
35°C Temperatur
14°C Duggpunkt
28% Fugtighed



Vind
23 KM/T
14 MPT
6 M/S
12 KNOB



10°
N
Nuværende forhold

Klart Klart
Tryk 1012.87 (hPa) - 29.91 (inHg)
Sigt 6 (mil) - 9.7 (km)
Lufthavn
Lufthavnskode LGRX

Lokation: Patras Araxos Agamemnon Airport
Afstand: 108 (km)

Metar:
LGRX 210750Z 01012KT CAVOK 35/14 Q1013

Tid: 21-06-2024 10:50 EEST